sensor_id;sensor_type;location;lat;lon;timestamp;P1;durP1;ratioP1;P2;durP2;ratioP2
18322;SDS011;9287;49.456;11.064;2023-03-04T00:01:13;22.37;;;13.73;;
18322;SDS011;9287;49.456;11.064;2023-03-04T00:03:41;20.50;;;13.87;;
18322;SDS011;9287;49.456;11.064;2023-03-04T00:06:09;20.50;;;14.17;;
18322;SDS011;9287;49.456;11.064;2023-03-04T00:08:36;20.60;;;13.03;;
18322;SDS011;9287;49.456;11.064;2023-03-04T00:11:05;22.47;;;13.90;;
18322;SDS011;9287;49.456;11.064;2023-03-04T00:13:33;22.13;;;14.17;;
18322;SDS011;9287;49.456;11.064;2023-03-04T00:16:01;21.13;;;13.63;;
18322;SDS011;9287;49.456;11.064;2023-03-04T00:18:28;17.47;;;12.77;;
18322;SDS011;9287;49.456;11.064;2023-03-04T00:20:56;18.90;;;13.20;;
18322;SDS011;9287;49.456;11.064;2023-03-04T00:23:24;20.13;;;13.63;;
18322;SDS011;9287;49.456;11.064;2023-03-04T00:25:51;21.83;;;13.53;;
18322;SDS011;9287;49.456;11.064;2023-03-04T00:28:20;18.67;;;13.17;;
18322;SDS011;9287;49.456;11.064;2023-03-04T00:30:48;18.00;;;13.20;;
18322;SDS011;9287;49.456;11.064;2023-03-04T00:33:16;19.23;;;13.07;;
18322;SDS011;9287;49.456;11.064;2023-03-04T00:35:43;19.17;;;13.13;;
18322;SDS011;9287;49.456;11.064;2023-03-04T00:38:11;19.50;;;13.37;;
18322;SDS011;9287;49.456;11.064;2023-03-04T00:40:39;16.30;;;12.13;;
18322;SDS011;9287;49.456;11.064;2023-03-04T00:43:07;19.83;;;12.93;;
18322;SDS011;9287;49.456;11.064;2023-03-04T00:45:36;17.93;;;12.57;;
18322;SDS011;9287;49.456;11.064;2023-03-04T00:48:03;20.27;;;12.40;;
18322;SDS011;9287;49.456;11.064;2023-03-04T00:50:31;18.20;;;12.73;;
18322;SDS011;9287;49.456;11.064;2023-03-04T00:52:59;18.73;;;13.23;;
18322;SDS011;9287;49.456;11.064;2023-03-04T00:55:27;16.73;;;11.47;;
18322;SDS011;9287;49.456;11.064;2023-03-04T00:57:55;17.53;;;11.67;;
18322;SDS011;9287;49.456;11.064;2023-03-04T01:00:22;19.73;;;12.80;;
18322;SDS011;9287;49.456;11.064;2023-03-04T01:02:51;18.30;;;12.40;;
18322;SDS011;9287;49.456;11.064;2023-03-04T01:05:19;17.93;;;12.23;;
18322;SDS011;9287;49.456;11.064;2023-03-04T01:07:47;18.47;;;13.00;;
18322;SDS011;9287;49.456;11.064;2023-03-04T01:10:14;18.70;;;12.00;;
18322;SDS011;9287;49.456;11.064;2023-03-04T01:12:42;17.37;;;11.90;;
18322;SDS011;9287;49.456;11.064;2023-03-04T01:15:11;17.20;;;12.00;;
18322;SDS011;9287;49.456;11.064;2023-03-04T01:17:40;18.53;;;11.97;;
18322;SDS011;9287;49.456;11.064;2023-03-04T01:20:10;16.97;;;11.87;;
18322;SDS011;9287;49.456;11.064;2023-03-04T01:22:38;17.27;;;12.10;;
18322;SDS011;9287;49.456;11.064;2023-03-04T01:25:06;21.13;;;12.67;;
18322;SDS011;9287;49.456;11.064;2023-03-04T01:27:34;17.60;;;12.73;;
18322;SDS011;9287;49.456;11.064;2023-03-04T01:30:03;18.43;;;12.77;;
18322;SDS011;9287;49.456;11.064;2023-03-04T01:32:31;16.60;;;11.77;;
18322;SDS011;9287;49.456;11.064;2023-03-04T01:34:59;16.37;;;11.57;;
18322;SDS011;9287;49.456;11.064;2023-03-04T01:37:28;15.37;;;11.20;;
18322;SDS011;9287;49.456;11.064;2023-03-04T01:39:55;14.90;;;10.63;;
18322;SDS011;9287;49.456;11.064;2023-03-04T01:42:23;13.63;;;10.63;;
18322;SDS011;9287;49.456;11.064;2023-03-04T01:44:54;15.33;;;11.27;;
18322;SDS011;9287;49.456;11.064;2023-03-04T01:47:22;14.30;;;10.53;;
18322;SDS011;9287;49.456;11.064;2023-03-04T01:49:55;17.13;;;11.47;;
18322;SDS011;9287;49.456;11.064;2023-03-04T01:52:24;16.50;;;11.30;;
18322;SDS011;9287;49.456;11.064;2023-03-04T01:54:55;15.33;;;10.97;;
18322;SDS011;9287;49.456;11.064;2023-03-04T01:57:24;13.83;;;10.90;;
18322;SDS011;9287;49.456;11.064;2023-03-04T02:02:48;15.30;;;10.73;;
18322;SDS011;9287;49.456;11.064;2023-03-04T02:05:17;17.10;;;11.90;;
18322;SDS011;9287;49.456;11.064;2023-03-04T02:07:45;15.03;;;11.17;;
18322;SDS011;9287;49.456;11.064;2023-03-04T02:10:14;15.00;;;11.67;;
18322;SDS011;9287;49.456;11.064;2023-03-04T02:12:42;14.17;;;11.33;;
18322;SDS011;9287;49.456;11.064;2023-03-04T02:15:11;17.23;;;12.17;;
18322;SDS011;9287;49.456;11.064;2023-03-04T02:17:39;16.67;;;11.23;;
18322;SDS011;9287;49.456;11.064;2023-03-04T02:20:11;14.73;;;11.63;;
18322;SDS011;9287;49.456;11.064;2023-03-04T02:22:48;15.57;;;11.53;;
18322;SDS011;9287;49.456;11.064;2023-03-04T02:25:26;13.83;;;10.23;;
18322;SDS011;9287;49.456;11.064;2023-03-04T02:27:58;16.20;;;10.90;;
18322;SDS011;9287;49.456;11.064;2023-03-04T02:30:26;14.40;;;10.50;;
18322;SDS011;9287;49.456;11.064;2023-03-04T02:32:54;14.57;;;9.83;;
18322;SDS011;9287;49.456;11.064;2023-03-04T02:35:21;15.23;;;10.13;;
18322;SDS011;9287;49.456;11.064;2023-03-04T02:37:49;14.50;;;10.27;;
18322;SDS011;9287;49.456;11.064;2023-03-04T02:40:20;13.73;;;10.13;;
18322;SDS011;9287;49.456;11.064;2023-03-04T02:42:50;14.03;;;10.73;;
18322;SDS011;9287;49.456;11.064;2023-03-04T02:45:36;15.07;;;10.80;;
18322;SDS011;9287;49.456;11.064;2023-03-04T02:48:06;14.60;;;10.63;;
18322;SDS011;9287;49.456;11.064;2023-03-04T02:50:37;15.23;;;11.30;;
18322;SDS011;9287;49.456;11.064;2023-03-04T02:53:07;13.83;;;9.50;;
18322;SDS011;9287;49.456;11.064;2023-03-04T02:55:35;12.97;;;10.17;;
18322;SDS011;9287;49.456;11.064;2023-03-04T02:58:03;13.40;;;9.97;;
18322;SDS011;9287;49.456;11.064;2023-03-04T03:00:31;13.03;;;9.47;;
18322;SDS011;9287;49.456;11.064;2023-03-04T03:03:00;14.07;;;10.20;;
18322;SDS011;9287;49.456;11.064;2023-03-04T03:05:28;13.50;;;9.77;;
18322;SDS011;9287;49.456;11.064;2023-03-04T03:07:58;16.57;;;11.00;;
18322;SDS011;9287;49.456;11.064;2023-03-04T03:10:26;13.00;;;9.70;;
18322;SDS011;9287;49.456;11.064;2023-03-04T03:12:55;14.50;;;10.07;;
18322;SDS011;9287;49.456;11.064;2023-03-04T03:15:23;15.70;;;10.80;;
18322;SDS011;9287;49.456;11.064;2023-03-04T03:17:50;14.57;;;10.17;;
18322;SDS011;9287;49.456;11.064;2023-03-04T03:20:19;17.40;;;11.70;;
18322;SDS011;9287;49.456;11.064;2023-03-04T03:22:47;13.97;;;10.97;;
18322;SDS011;9287;49.456;11.064;2023-03-04T03:25:15;15.00;;;11.33;;
18322;SDS011;9287;49.456;11.064;2023-03-04T03:27:43;15.17;;;11.60;;
18322;SDS011;9287;49.456;11.064;2023-03-04T03:30:12;15.17;;;11.07;;
18322;SDS011;9287;49.456;11.064;2023-03-04T03:32:40;15.30;;;11.33;;
18322;SDS011;9287;49.456;11.064;2023-03-04T03:35:08;15.50;;;11.03;;
18322;SDS011;9287;49.456;11.064;2023-03-04T03:37:37;16.90;;;12.67;;
18322;SDS011;9287;49.456;11.064;2023-03-04T03:40:05;16.93;;;12.07;;
18322;SDS011;9287;49.456;11.064;2023-03-04T03:42:34;14.87;;;11.70;;
18322;SDS011;9287;49.456;11.064;2023-03-04T03:45:02;17.10;;;12.77;;
18322;SDS011;9287;49.456;11.064;2023-03-04T03:47:30;17.97;;;12.83;;
18322;SDS011;9287;49.456;11.064;2023-03-04T03:49:58;19.63;;;13.43;;
18322;SDS011;9287;49.456;11.064;2023-03-04T03:52:25;16.13;;;12.83;;
18322;SDS011;9287;49.456;11.064;2023-03-04T03:54:54;21.07;;;14.77;;
18322;SDS011;9287;49.456;11.064;2023-03-04T03:57:22;19.70;;;15.00;;
18322;SDS011;9287;49.456;11.064;2023-03-04T03:59:50;19.47;;;14.70;;
18322;SDS011;9287;49.456;11.064;2023-03-04T04:02:17;19.80;;;14.90;;
18322;SDS011;9287;49.456;11.064;2023-03-04T04:04:45;19.63;;;14.80;;
18322;SDS011;9287;49.456;11.064;2023-03-04T04:07:13;19.57;;;13.80;;
18322;SDS011;9287;49.456;11.064;2023-03-04T04:09:40;17.20;;;14.17;;
18322;SDS011;9287;49.456;11.064;2023-03-04T04:12:10;22.30;;;15.00;;
18322;SDS011;9287;49.456;11.064;2023-03-04T04:14:39;21.30;;;15.23;;
18322;SDS011;9287;49.456;11.064;2023-03-04T04:17:07;19.37;;;14.47;;
18322;SDS011;9287;49.456;11.064;2023-03-04T04:19:35;18.97;;;14.33;;
18322;SDS011;9287;49.456;11.064;2023-03-04T04:22:03;18.03;;;13.60;;
18322;SDS011;9287;49.456;11.064;2023-03-04T04:24:31;18.33;;;13.90;;
18322;SDS011;9287;49.456;11.064;2023-03-04T04:26:59;21.70;;;14.37;;
18322;SDS011;9287;49.456;11.064;2023-03-04T04:29:28;19.73;;;14.63;;
18322;SDS011;9287;49.456;11.064;2023-03-04T04:31:55;19.60;;;14.73;;
18322;SDS011;9287;49.456;11.064;2023-03-04T04:34:23;17.33;;;13.27;;
18322;SDS011;9287;49.456;11.064;2023-03-04T04:36:51;20.90;;;14.63;;
18322;SDS011;9287;49.456;11.064;2023-03-04T04:39:19;18.53;;;13.63;;
18322;SDS011;9287;49.456;11.064;2023-03-04T04:41:46;20.20;;;13.43;;
18322;SDS011;9287;49.456;11.064;2023-03-04T04:44:15;19.23;;;13.67;;
18322;SDS011;9287;49.456;11.064;2023-03-04T04:46:44;19.13;;;13.43;;
18322;SDS011;9287;49.456;11.064;2023-03-04T04:49:11;18.73;;;13.63;;
18322;SDS011;9287;49.456;11.064;2023-03-04T04:51:39;18.70;;;13.03;;
18322;SDS011;9287;49.456;11.064;2023-03-04T04:54:07;18.80;;;13.03;;
18322;SDS011;9287;49.456;11.064;2023-03-04T04:56:40;19.27;;;13.70;;
18322;SDS011;9287;49.456;11.064;2023-03-04T04:59:07;17.87;;;12.60;;
18322;SDS011;9287;49.456;11.064;2023-03-04T05:01:35;19.83;;;13.37;;
18322;SDS011;9287;49.456;11.064;2023-03-04T05:04:05;21.33;;;13.90;;
18322;SDS011;9287;49.456;11.064;2023-03-04T05:06:32;21.43;;;14.13;;
18322;SDS011;9287;49.456;11.064;2023-03-04T05:09:00;19.77;;;13.27;;
18322;SDS011;9287;49.456;11.064;2023-03-04T05:11:28;19.90;;;13.63;;
18322;SDS011;9287;49.456;11.064;2023-03-04T05:13:56;20.07;;;13.17;;
18322;SDS011;9287;49.456;11.064;2023-03-04T05:16:23;21.53;;;14.23;;
18322;SDS011;9287;49.456;11.064;2023-03-04T05:18:51;19.37;;;13.10;;
18322;SDS011;9287;49.456;11.064;2023-03-04T05:21:20;19.80;;;13.70;;
18322;SDS011;9287;49.456;11.064;2023-03-04T05:23:48;19.53;;;12.80;;
18322;SDS011;9287;49.456;11.064;2023-03-04T05:26:16;20.10;;;13.30;;
18322;SDS011;9287;49.456;11.064;2023-03-04T05:28:44;21.50;;;14.40;;
18322;SDS011;9287;49.456;11.064;2023-03-04T05:31:12;19.27;;;13.20;;
18322;SDS011;9287;49.456;11.064;2023-03-04T05:33:40;21.73;;;13.93;;
18322;SDS011;9287;49.456;11.064;2023-03-04T05:36:08;20.63;;;14.40;;
18322;SDS011;9287;49.456;11.064;2023-03-04T05:38:37;20.00;;;13.97;;
18322;SDS011;9287;49.456;11.064;2023-03-04T05:41:05;25.10;;;16.47;;
18322;SDS011;9287;49.456;11.064;2023-03-04T05:43:34;23.07;;;14.73;;
18322;SDS011;9287;49.456;11.064;2023-03-04T05:46:08;22.70;;;14.77;;
18322;SDS011;9287;49.456;11.064;2023-03-04T05:48:39;23.13;;;15.27;;
18322;SDS011;9287;49.456;11.064;2023-03-04T05:51:07;24.23;;;14.80;;
18322;SDS011;9287;49.456;11.064;2023-03-04T05:53:35;20.10;;;14.00;;
18322;SDS011;9287;49.456;11.064;2023-03-04T05:56:09;21.47;;;14.10;;
18322;SDS011;9287;49.456;11.064;2023-03-04T05:58:38;20.17;;;14.10;;
18322;SDS011;9287;49.456;11.064;2023-03-04T06:01:06;22.57;;;14.53;;
18322;SDS011;9287;49.456;11.064;2023-03-04T06:03:33;20.07;;;13.17;;
18322;SDS011;9287;49.456;11.064;2023-03-04T06:06:02;21.60;;;14.60;;
18322;SDS011;9287;49.456;11.064;2023-03-04T06:08:30;20.23;;;13.67;;
18322;SDS011;9287;49.456;11.064;2023-03-04T06:10:58;21.80;;;14.00;;
18322;SDS011;9287;49.456;11.064;2023-03-04T06:13:27;19.73;;;14.37;;
18322;SDS011;9287;49.456;11.064;2023-03-04T06:15:55;23.93;;;16.33;;
18322;SDS011;9287;49.456;11.064;2023-03-04T06:18:24;22.73;;;15.07;;
18322;SDS011;9287;49.456;11.064;2023-03-04T06:20:54;23.60;;;15.00;;
18322;SDS011;9287;49.456;11.064;2023-03-04T06:23:22;29.63;;;17.33;;
18322;SDS011;9287;49.456;11.064;2023-03-04T06:25:51;24.60;;;16.43;;
18322;SDS011;9287;49.456;11.064;2023-03-04T06:28:20;26.70;;;16.77;;
18322;SDS011;9287;49.456;11.064;2023-03-04T06:30:50;24.77;;;16.10;;
18322;SDS011;9287;49.456;11.064;2023-03-04T06:33:18;25.23;;;17.23;;
18322;SDS011;9287;49.456;11.064;2023-03-04T06:35:46;26.93;;;16.77;;
18322;SDS011;9287;49.456;11.064;2023-03-04T06:38:14;26.27;;;15.87;;
18322;SDS011;9287;49.456;11.064;2023-03-04T06:40:41;23.83;;;15.37;;
18322;SDS011;9287;49.456;11.064;2023-03-04T06:43:11;25.63;;;16.37;;
18322;SDS011;9287;49.456;11.064;2023-03-04T06:45:38;29.17;;;16.53;;
18322;SDS011;9287;49.456;11.064;2023-03-04T06:48:07;25.70;;;16.87;;
18322;SDS011;9287;49.456;11.064;2023-03-04T06:50:38;28.03;;;16.80;;
18322;SDS011;9287;49.456;11.064;2023-03-04T06:53:06;25.23;;;15.80;;
18322;SDS011;9287;49.456;11.064;2023-03-04T06:55:34;23.80;;;14.93;;
18322;SDS011;9287;49.456;11.064;2023-03-04T06:58:02;23.73;;;15.80;;
18322;SDS011;9287;49.456;11.064;2023-03-04T07:00:30;22.47;;;15.13;;
18322;SDS011;9287;49.456;11.064;2023-03-04T07:02:58;23.37;;;15.10;;
18322;SDS011;9287;49.456;11.064;2023-03-04T07:05:27;24.53;;;14.37;;
18322;SDS011;9287;49.456;11.064;2023-03-04T07:07:55;21.40;;;13.60;;
18322;SDS011;9287;49.456;11.064;2023-03-04T07:10:22;23.20;;;14.37;;
18322;SDS011;9287;49.456;11.064;2023-03-04T07:12:50;21.37;;;14.00;;
18322;SDS011;9287;49.456;11.064;2023-03-04T07:15:18;21.33;;;13.97;;
18322;SDS011;9287;49.456;11.064;2023-03-04T07:17:45;22.77;;;13.73;;
18322;SDS011;9287;49.456;11.064;2023-03-04T07:20:13;22.67;;;14.07;;
18322;SDS011;9287;49.456;11.064;2023-03-04T07:22:42;22.80;;;13.93;;
18322;SDS011;9287;49.456;11.064;2023-03-04T07:25:10;22.47;;;13.77;;
18322;SDS011;9287;49.456;11.064;2023-03-04T07:27:38;22.23;;;13.63;;
18322;SDS011;9287;49.456;11.064;2023-03-04T07:30:07;22.97;;;14.27;;
18322;SDS011;9287;49.456;11.064;2023-03-04T07:32:36;21.07;;;12.97;;
18322;SDS011;9287;49.456;11.064;2023-03-04T07:35:04;24.70;;;14.33;;
18322;SDS011;9287;49.456;11.064;2023-03-04T07:37:32;23.93;;;14.47;;
18322;SDS011;9287;49.456;11.064;2023-03-04T07:40:02;23.17;;;13.93;;
18322;SDS011;9287;49.456;11.064;2023-03-04T07:42:30;23.97;;;14.80;;
18322;SDS011;9287;49.456;11.064;2023-03-04T07:44:57;23.10;;;15.13;;
18322;SDS011;9287;49.456;11.064;2023-03-04T07:47:26;23.13;;;14.57;;
18322;SDS011;9287;49.456;11.064;2023-03-04T07:49:54;21.13;;;13.30;;
18322;SDS011;9287;49.456;11.064;2023-03-04T07:52:22;23.70;;;14.67;;
18322;SDS011;9287;49.456;11.064;2023-03-04T07:54:50;23.60;;;14.50;;
18322;SDS011;9287;49.456;11.064;2023-03-04T07:57:19;19.50;;;13.50;;
18322;SDS011;9287;49.456;11.064;2023-03-04T07:59:46;20.93;;;13.97;;
18322;SDS011;9287;49.456;11.064;2023-03-04T08:02:14;22.23;;;14.23;;
18322;SDS011;9287;49.456;11.064;2023-03-04T08:04:42;21.17;;;13.53;;
18322;SDS011;9287;49.456;11.064;2023-03-04T08:07:10;18.37;;;12.23;;
18322;SDS011;9287;49.456;11.064;2023-03-04T08:09:38;22.07;;;14.10;;
18322;SDS011;9287;49.456;11.064;2023-03-04T08:12:05;21.33;;;13.83;;
18322;SDS011;9287;49.456;11.064;2023-03-04T08:14:34;20.30;;;13.70;;
18322;SDS011;9287;49.456;11.064;2023-03-04T08:17:02;21.23;;;12.40;;
18322;SDS011;9287;49.456;11.064;2023-03-04T08:19:30;18.70;;;12.40;;
18322;SDS011;9287;49.456;11.064;2023-03-04T08:21:58;20.57;;;13.13;;
18322;SDS011;9287;49.456;11.064;2023-03-04T08:24:26;18.40;;;12.27;;
18322;SDS011;9287;49.456;11.064;2023-03-04T08:26:54;19.83;;;13.13;;
18322;SDS011;9287;49.456;11.064;2023-03-04T08:29:23;19.40;;;12.80;;
18322;SDS011;9287;49.456;11.064;2023-03-04T08:31:53;17.50;;;11.53;;
18322;SDS011;9287;49.456;11.064;2023-03-04T08:34:22;18.27;;;11.87;;
18322;SDS011;9287;49.456;11.064;2023-03-04T08:36:52;21.00;;;12.90;;
18322;SDS011;9287;49.456;11.064;2023-03-04T08:39:20;19.50;;;12.93;;
18322;SDS011;9287;49.456;11.064;2023-03-04T08:41:48;20.70;;;14.13;;
18322;SDS011;9287;49.456;11.064;2023-03-04T08:44:16;23.10;;;14.07;;
18322;SDS011;9287;49.456;11.064;2023-03-04T08:46:44;21.63;;;13.80;;
18322;SDS011;9287;49.456;11.064;2023-03-04T08:49:13;19.40;;;13.20;;
18322;SDS011;9287;49.456;11.064;2023-03-04T08:51:41;22.77;;;12.97;;
18322;SDS011;9287;49.456;11.064;2023-03-04T08:54:10;19.80;;;13.07;;
18322;SDS011;9287;49.456;11.064;2023-03-04T08:56:39;20.60;;;13.93;;
18322;SDS011;9287;49.456;11.064;2023-03-04T08:59:07;21.03;;;13.33;;
18322;SDS011;9287;49.456;11.064;2023-03-04T09:01:34;19.10;;;12.77;;
18322;SDS011;9287;49.456;11.064;2023-03-04T09:04:02;21.07;;;13.30;;
18322;SDS011;9287;49.456;11.064;2023-03-04T09:06:31;18.90;;;13.27;;
18322;SDS011;9287;49.456;11.064;2023-03-04T09:08:59;19.73;;;13.07;;
18322;SDS011;9287;49.456;11.064;2023-03-04T09:11:27;19.43;;;12.80;;
18322;SDS011;9287;49.456;11.064;2023-03-04T09:13:54;18.77;;;13.23;;
18322;SDS011;9287;49.456;11.064;2023-03-04T09:16:23;20.90;;;14.07;;
18322;SDS011;9287;49.456;11.064;2023-03-04T09:18:51;21.27;;;13.77;;
18322;SDS011;9287;49.456;11.064;2023-03-04T09:21:18;21.87;;;13.63;;
18322;SDS011;9287;49.456;11.064;2023-03-04T09:23:47;22.53;;;14.40;;
18322;SDS011;9287;49.456;11.064;2023-03-04T09:26:16;19.90;;;13.50;;
18322;SDS011;9287;49.456;11.064;2023-03-04T09:28:48;21.10;;;13.73;;
18322;SDS011;9287;49.456;11.064;2023-03-04T09:31:17;22.53;;;14.50;;
18322;SDS011;9287;49.456;11.064;2023-03-04T09:33:46;19.83;;;12.87;;
18322;SDS011;9287;49.456;11.064;2023-03-04T09:36:15;23.43;;;14.23;;
18322;SDS011;9287;49.456;11.064;2023-03-04T09:38:43;21.37;;;14.40;;
18322;SDS011;9287;49.456;11.064;2023-03-04T09:41:14;21.67;;;13.80;;
18322;SDS011;9287;49.456;11.064;2023-03-04T09:43:44;19.27;;;13.37;;
18322;SDS011;9287;49.456;11.064;2023-03-04T09:46:15;20.30;;;13.67;;
18322;SDS011;9287;49.456;11.064;2023-03-04T09:48:46;18.40;;;13.63;;
18322;SDS011;9287;49.456;11.064;2023-03-04T09:51:20;17.77;;;13.27;;
18322;SDS011;9287;49.456;11.064;2023-03-04T09:54:03;21.07;;;13.83;;
18322;SDS011;9287;49.456;11.064;2023-03-04T09:56:36;20.40;;;13.77;;
18322;SDS011;9287;49.456;11.064;2023-03-04T09:59:08;20.40;;;13.33;;
18322;SDS011;9287;49.456;11.064;2023-03-04T10:01:44;20.63;;;14.47;;
18322;SDS011;9287;49.456;11.064;2023-03-04T10:04:16;20.57;;;13.97;;
18322;SDS011;9287;49.456;11.064;2023-03-04T10:06:57;23.17;;;16.20;;
18322;SDS011;9287;49.456;11.064;2023-03-04T10:09:27;22.20;;;15.57;;
18322;SDS011;9287;49.456;11.064;2023-03-04T10:12:01;21.63;;;14.80;;
18322;SDS011;9287;49.456;11.064;2023-03-04T10:14:33;24.77;;;16.43;;
18322;SDS011;9287;49.456;11.064;2023-03-04T10:17:05;21.33;;;15.80;;
18322;SDS011;9287;49.456;11.064;2023-03-04T10:19:50;21.97;;;15.20;;
18322;SDS011;9287;49.456;11.064;2023-03-04T10:22:23;24.93;;;16.60;;
18322;SDS011;9287;49.456;11.064;2023-03-04T10:25:00;19.87;;;14.33;;
18322;SDS011;9287;49.456;11.064;2023-03-04T10:27:42;20.90;;;14.57;;
18322;SDS011;9287;49.456;11.064;2023-03-04T10:30:17;19.23;;;13.73;;
18322;SDS011;9287;49.456;11.064;2023-03-04T10:32:49;19.07;;;13.63;;
18322;SDS011;9287;49.456;11.064;2023-03-04T10:35:17;20.77;;;14.50;;
18322;SDS011;9287;49.456;11.064;2023-03-04T10:37:49;20.43;;;14.03;;
18322;SDS011;9287;49.456;11.064;2023-03-04T10:40:19;16.20;;;12.90;;
18322;SDS011;9287;49.456;11.064;2023-03-04T10:42:50;19.47;;;12.80;;
18322;SDS011;9287;49.456;11.064;2023-03-04T10:45:21;20.60;;;14.47;;
18322;SDS011;9287;49.456;11.064;2023-03-04T10:47:51;18.87;;;13.73;;
18322;SDS011;9287;49.456;11.064;2023-03-04T10:50:22;21.37;;;13.43;;
18322;SDS011;9287;49.456;11.064;2023-03-04T10:52:51;19.13;;;13.17;;
18322;SDS011;9287;49.456;11.064;2023-03-04T10:55:21;18.73;;;12.90;;
18322;SDS011;9287;49.456;11.064;2023-03-04T10:57:54;17.23;;;12.10;;
18322;SDS011;9287;49.456;11.064;2023-03-04T11:00:27;18.13;;;12.57;;
18322;SDS011;9287;49.456;11.064;2023-03-04T11:06:02;19.50;;;13.33;;
18322;SDS011;9287;49.456;11.064;2023-03-04T11:08:32;17.50;;;12.77;;
18322;SDS011;9287;49.456;11.064;2023-03-04T11:11:00;17.67;;;12.30;;
18322;SDS011;9287;49.456;11.064;2023-03-04T11:13:29;17.50;;;13.43;;
18322;SDS011;9287;49.456;11.064;2023-03-04T11:15:58;16.43;;;12.30;;
18322;SDS011;9287;49.456;11.064;2023-03-04T11:18:30;16.43;;;12.60;;
18322;SDS011;9287;49.456;11.064;2023-03-04T11:21:05;14.47;;;11.30;;
18322;SDS011;9287;49.456;11.064;2023-03-04T11:23:42;25.83;;;13.13;;
18322;SDS011;9287;49.456;11.064;2023-03-04T11:26:15;20.93;;;12.30;;
18322;SDS011;9287;49.456;11.064;2023-03-04T11:28:48;16.47;;;11.87;;
18322;SDS011;9287;49.456;11.064;2023-03-04T11:31:22;16.63;;;12.17;;
18322;SDS011;9287;49.456;11.064;2023-03-04T11:33:55;18.53;;;11.87;;
18322;SDS011;9287;49.456;11.064;2023-03-04T11:36:30;15.23;;;11.53;;
18322;SDS011;9287;49.456;11.064;2023-03-04T11:39:02;20.80;;;12.33;;
18322;SDS011;9287;49.456;11.064;2023-03-04T11:41:40;17.00;;;11.40;;
18322;SDS011;9287;49.456;11.064;2023-03-04T11:44:22;16.03;;;12.30;;
18322;SDS011;9287;49.456;11.064;2023-03-04T11:46:53;15.57;;;11.57;;
18322;SDS011;9287;49.456;11.064;2023-03-04T11:49:52;15.67;;;12.20;;
18322;SDS011;9287;49.456;11.064;2023-03-04T11:52:29;17.60;;;12.73;;
18322;SDS011;9287;49.456;11.064;2023-03-04T11:55:14;15.17;;;11.43;;
18322;SDS011;9287;49.456;11.064;2023-03-04T11:57:53;21.07;;;13.03;;
18322;SDS011;9287;49.456;11.064;2023-03-04T12:00:32;23.93;;;14.23;;
18322;SDS011;9287;49.456;11.064;2023-03-04T12:03:13;16.63;;;11.27;;
18322;SDS011;9287;49.456;11.064;2023-03-04T12:05:54;16.37;;;10.67;;
18322;SDS011;9287;49.456;11.064;2023-03-04T12:08:30;14.37;;;11.37;;
18322;SDS011;9287;49.456;11.064;2023-03-04T12:11:05;19.47;;;12.33;;
18322;SDS011;9287;49.456;11.064;2023-03-04T12:16:40;19.13;;;12.87;;
18322;SDS011;9287;49.456;11.064;2023-03-04T12:19:23;19.17;;;12.83;;
18322;SDS011;9287;49.456;11.064;2023-03-04T12:22:10;16.73;;;12.87;;
18322;SDS011;9287;49.456;11.064;2023-03-04T12:25:00;22.37;;;15.17;;
18322;SDS011;9287;49.456;11.064;2023-03-04T12:27:42;17.57;;;11.90;;
18322;SDS011;9287;49.456;11.064;2023-03-04T12:30:17;21.47;;;14.27;;
18322;SDS011;9287;49.456;11.064;2023-03-04T12:32:57;18.33;;;12.70;;
18322;SDS011;9287;49.456;11.064;2023-03-04T12:35:36;15.27;;;12.70;;
18322;SDS011;9287;49.456;11.064;2023-03-04T12:41:11;15.97;;;11.87;;
18322;SDS011;9287;49.456;11.064;2023-03-04T12:43:51;18.93;;;13.87;;
18322;SDS011;9287;49.456;11.064;2023-03-04T12:49:18;19.90;;;11.87;;
18322;SDS011;9287;49.456;11.064;2023-03-04T12:51:57;21.47;;;14.00;;
18322;SDS011;9287;49.456;11.064;2023-03-04T12:54:33;16.43;;;11.53;;
18322;SDS011;9287;49.456;11.064;2023-03-04T12:57:07;16.87;;;12.60;;
18322;SDS011;9287;49.456;11.064;2023-03-04T12:59:39;19.40;;;12.33;;
18322;SDS011;9287;49.456;11.064;2023-03-04T13:02:22;17.03;;;12.40;;
18322;SDS011;9287;49.456;11.064;2023-03-04T13:05:05;15.70;;;12.40;;
18322;SDS011;9287;49.456;11.064;2023-03-04T13:07:47;16.07;;;12.17;;
18322;SDS011;9287;49.456;11.064;2023-03-04T13:10:22;15.53;;;10.97;;
18322;SDS011;9287;49.456;11.064;2023-03-04T13:12:51;16.80;;;11.10;;
18322;SDS011;9287;49.456;11.064;2023-03-04T13:15:31;16.73;;;11.10;;
18322;SDS011;9287;49.456;11.064;2023-03-04T13:18:01;19.10;;;12.00;;
18322;SDS011;9287;49.456;11.064;2023-03-04T13:21:05;20.80;;;11.87;;
18322;SDS011;9287;49.456;11.064;2023-03-04T13:23:42;18.33;;;11.93;;
18322;SDS011;9287;49.456;11.064;2023-03-04T13:26:17;16.67;;;11.50;;
18322;SDS011;9287;49.456;11.064;2023-03-04T13:29:08;15.13;;;10.90;;
18322;SDS011;9287;49.456;11.064;2023-03-04T13:31:56;18.43;;;11.60;;
18322;SDS011;9287;49.456;11.064;2023-03-04T13:34:41;16.00;;;11.47;;
18322;SDS011;9287;49.456;11.064;2023-03-04T13:37:31;16.13;;;12.17;;
18322;SDS011;9287;49.456;11.064;2023-03-04T13:43:17;14.50;;;10.50;;
18322;SDS011;9287;49.456;11.064;2023-03-04T13:45:51;17.50;;;11.43;;
18322;SDS011;9287;49.456;11.064;2023-03-04T13:48:22;17.73;;;11.33;;
18322;SDS011;9287;49.456;11.064;2023-03-04T13:50:54;18.77;;;10.83;;
18322;SDS011;9287;49.456;11.064;2023-03-04T13:53:32;17.23;;;11.80;;
18322;SDS011;9287;49.456;11.064;2023-03-04T13:56:21;21.00;;;12.70;;
18322;SDS011;9287;49.456;11.064;2023-03-04T13:58:52;17.67;;;10.90;;
18322;SDS011;9287;49.456;11.064;2023-03-04T14:01:31;16.63;;;11.23;;
18322;SDS011;9287;49.456;11.064;2023-03-04T14:04:04;19.70;;;12.10;;
18322;SDS011;9287;49.456;11.064;2023-03-04T14:06:40;19.63;;;11.67;;
18322;SDS011;9287;49.456;11.064;2023-03-04T14:09:12;17.47;;;11.10;;
18322;SDS011;9287;49.456;11.064;2023-03-04T14:11:41;22.10;;;11.57;;
18322;SDS011;9287;49.456;11.064;2023-03-04T14:14:11;21.67;;;14.27;;
18322;SDS011;9287;49.456;11.064;2023-03-04T14:16:44;20.50;;;13.97;;
18322;SDS011;9287;49.456;11.064;2023-03-04T14:19:17;21.47;;;11.87;;
18322;SDS011;9287;49.456;11.064;2023-03-04T14:21:51;17.27;;;12.13;;
18322;SDS011;9287;49.456;11.064;2023-03-04T14:24:21;21.17;;;12.43;;
18322;SDS011;9287;49.456;11.064;2023-03-04T14:26:59;15.63;;;12.03;;
18322;SDS011;9287;49.456;11.064;2023-03-04T14:29:36;18.67;;;12.83;;
18322;SDS011;9287;49.456;11.064;2023-03-04T14:32:04;19.53;;;12.40;;
18322;SDS011;9287;49.456;11.064;2023-03-04T14:34:34;20.70;;;12.47;;
18322;SDS011;9287;49.456;11.064;2023-03-04T14:37:15;15.47;;;11.60;;
18322;SDS011;9287;49.456;11.064;2023-03-04T14:39:49;20.90;;;11.30;;
18322;SDS011;9287;49.456;11.064;2023-03-04T14:42:22;17.00;;;11.33;;
18322;SDS011;9287;49.456;11.064;2023-03-04T14:44:56;16.53;;;11.37;;
18322;SDS011;9287;49.456;11.064;2023-03-04T14:47:28;18.07;;;12.47;;
18322;SDS011;9287;49.456;11.064;2023-03-04T14:50:04;20.63;;;12.47;;
18322;SDS011;9287;49.456;11.064;2023-03-04T14:52:34;16.37;;;11.77;;
18322;SDS011;9287;49.456;11.064;2023-03-04T14:55:15;14.43;;;11.90;;
18322;SDS011;9287;49.456;11.064;2023-03-04T14:57:47;16.73;;;10.70;;
18322;SDS011;9287;49.456;11.064;2023-03-04T15:00:25;20.20;;;11.83;;